sensor_id;sensor_type;location;lat;lon;timestamp;P1;durP1;ratioP1;P2;durP2;ratioP2
31262;SDS011;17892;52.080;9.006;2023-03-01T00:01:59;2.45;;;1.30;;
31262;SDS011;17892;52.080;9.006;2023-03-01T00:04:26;2.25;;;0.95;;
31262;SDS011;17892;52.080;9.006;2023-03-01T00:06:52;2.38;;;1.20;;
31262;SDS011;17892;52.080;9.006;2023-03-01T00:09:18;2.28;;;1.25;;
31262;SDS011;17892;52.080;9.006;2023-03-01T00:11:44;2.45;;;1.10;;
31262;SDS011;17892;52.080;9.006;2023-03-01T00:14:11;2.75;;;1.05;;
31262;SDS011;17892;52.080;9.006;2023-03-01T00:16:38;2.22;;;1.08;;
31262;SDS011;17892;52.080;9.006;2023-03-01T00:19:07;2.58;;;0.98;;
31262;SDS011;17892;52.080;9.006;2023-03-01T00:21:37;2.97;;;1.48;;
31262;SDS011;17892;52.080;9.006;2023-03-01T00:24:03;3.60;;;1.50;;
31262;SDS011;17892;52.080;9.006;2023-03-01T00:26:29;2.22;;;0.98;;
31262;SDS011;17892;52.080;9.006;2023-03-01T00:28:56;2.30;;;1.13;;
31262;SDS011;17892;52.080;9.006;2023-03-01T00:31:24;3.75;;;1.45;;
31262;SDS011;17892;52.080;9.006;2023-03-01T00:33:53;2.45;;;1.02;;
31262;SDS011;17892;52.080;9.006;2023-03-01T00:36:23;2.20;;;0.98;;
31262;SDS011;17892;52.080;9.006;2023-03-01T00:38:51;3.25;;;1.65;;
31262;SDS011;17892;52.080;9.006;2023-03-01T00:41:18;2.15;;;1.00;;
31262;SDS011;17892;52.080;9.006;2023-03-01T00:43:45;3.00;;;1.20;;
31262;SDS011;17892;52.080;9.006;2023-03-01T00:46:12;3.13;;;1.30;;
31262;SDS011;17892;52.080;9.006;2023-03-01T00:48:41;2.15;;;0.80;;
31262;SDS011;17892;52.080;9.006;2023-03-01T00:51:11;2.55;;;0.98;;
31262;SDS011;17892;52.080;9.006;2023-03-01T00:53:38;2.20;;;1.02;;
31262;SDS011;17892;52.080;9.006;2023-03-01T00:56:04;2.08;;;0.88;;
31262;SDS011;17892;52.080;9.006;2023-03-01T00:58:33;2.13;;;0.93;;
31262;SDS011;17892;52.080;9.006;2023-03-01T01:01:00;2.75;;;1.27;;
31262;SDS011;17892;52.080;9.006;2023-03-01T01:03:26;2.15;;;1.20;;
31262;SDS011;17892;52.080;9.006;2023-03-01T01:05:52;1.55;;;0.65;;
31262;SDS011;17892;52.080;9.006;2023-03-01T01:08:18;2.92;;;1.13;;
31262;SDS011;17892;52.080;9.006;2023-03-01T01:10:46;3.25;;;1.60;;
31262;SDS011;17892;52.080;9.006;2023-03-01T01:13:12;2.95;;;1.20;;
31262;SDS011;17892;52.080;9.006;2023-03-01T01:15:38;2.80;;;1.23;;
31262;SDS011;17892;52.080;9.006;2023-03-01T01:18:04;1.55;;;0.85;;
31262;SDS011;17892;52.080;9.006;2023-03-01T01:20:31;2.40;;;1.30;;
31262;SDS011;17892;52.080;9.006;2023-03-01T01:22:57;2.45;;;1.42;;
31262;SDS011;17892;52.080;9.006;2023-03-01T01:25:23;2.60;;;1.20;;
31262;SDS011;17892;52.080;9.006;2023-03-01T01:27:51;2.90;;;1.00;;
31262;SDS011;17892;52.080;9.006;2023-03-01T01:30:17;3.15;;;1.38;;
31262;SDS011;17892;52.080;9.006;2023-03-01T01:32:43;3.90;;;1.58;;
31262;SDS011;17892;52.080;9.006;2023-03-01T01:35:09;2.88;;;1.20;;
31262;SDS011;17892;52.080;9.006;2023-03-01T01:37:34;2.58;;;1.38;;
31262;SDS011;17892;52.080;9.006;2023-03-01T01:40:00;2.63;;;1.02;;
31262;SDS011;17892;52.080;9.006;2023-03-01T01:42:31;2.67;;;1.17;;
31262;SDS011;17892;52.080;9.006;2023-03-01T01:45:23;2.28;;;1.02;;
31262;SDS011;17892;52.080;9.006;2023-03-01T01:47:59;2.60;;;0.98;;
31262;SDS011;17892;52.080;9.006;2023-03-01T01:50:30;3.13;;;1.17;;
31262;SDS011;17892;52.080;9.006;2023-03-01T01:53:03;2.50;;;0.98;;
31262;SDS011;17892;52.080;9.006;2023-03-01T01:55:37;2.55;;;0.90;;
31262;SDS011;17892;52.080;9.006;2023-03-01T01:58:09;2.85;;;1.10;;
31262;SDS011;17892;52.080;9.006;2023-03-01T02:00:39;2.50;;;1.10;;
31262;SDS011;17892;52.080;9.006;2023-03-01T02:03:13;3.05;;;1.17;;
31262;SDS011;17892;52.080;9.006;2023-03-01T02:08:43;2.05;;;0.80;;
31262;SDS011;17892;52.080;9.006;2023-03-01T02:11:12;3.25;;;1.50;;
31262;SDS011;17892;52.080;9.006;2023-03-01T02:13:42;2.25;;;0.95;;
31262;SDS011;17892;52.080;9.006;2023-03-01T02:16:08;2.60;;;1.05;;
31262;SDS011;17892;52.080;9.006;2023-03-01T02:18:37;2.15;;;0.85;;
31262;SDS011;17892;52.080;9.006;2023-03-01T02:21:12;2.40;;;1.08;;
31262;SDS011;17892;52.080;9.006;2023-03-01T02:23:54;2.38;;;0.82;;
31262;SDS011;17892;52.080;9.006;2023-03-01T02:26:30;2.65;;;1.00;;
31262;SDS011;17892;52.080;9.006;2023-03-01T02:29:10;2.40;;;1.02;;
31262;SDS011;17892;52.080;9.006;2023-03-01T02:31:36;2.53;;;0.98;;
31262;SDS011;17892;52.080;9.006;2023-03-01T02:34:15;2.55;;;0.95;;
31262;SDS011;17892;52.080;9.006;2023-03-01T02:36:45;2.17;;;1.02;;
31262;SDS011;17892;52.080;9.006;2023-03-01T02:39:16;1.83;;;0.75;;
31262;SDS011;17892;52.080;9.006;2023-03-01T02:41:51;6.05;;;1.20;;
31262;SDS011;17892;52.080;9.006;2023-03-01T02:44:20;3.65;;;1.30;;
31262;SDS011;17892;52.080;9.006;2023-03-01T02:46:47;2.55;;;1.10;;
31262;SDS011;17892;52.080;9.006;2023-03-01T02:54:45;2.92;;;1.20;;
31262;SDS011;17892;52.080;9.006;2023-03-01T02:57:19;3.33;;;1.42;;
31262;SDS011;17892;52.080;9.006;2023-03-01T02:59:47;1.73;;;0.98;;
31262;SDS011;17892;52.080;9.006;2023-03-01T03:02:18;2.33;;;0.98;;
31262;SDS011;17892;52.080;9.006;2023-03-01T03:05:08;3.05;;;1.40;;
31262;SDS011;17892;52.080;9.006;2023-03-01T03:07:38;2.35;;;1.10;;
31262;SDS011;17892;52.080;9.006;2023-03-01T03:10:14;3.05;;;1.60;;
31262;SDS011;17892;52.080;9.006;2023-03-01T03:12:53;2.50;;;1.20;;
31262;SDS011;17892;52.080;9.006;2023-03-01T03:15:26;2.33;;;0.73;;
31262;SDS011;17892;52.080;9.006;2023-03-01T03:17:54;3.40;;;1.50;;
31262;SDS011;17892;52.080;9.006;2023-03-01T03:20:22;1.92;;;0.98;;
31262;SDS011;17892;52.080;9.006;2023-03-01T03:22:52;2.55;;;1.10;;
31262;SDS011;17892;52.080;9.006;2023-03-01T03:25:19;2.50;;;0.85;;
31262;SDS011;17892;52.080;9.006;2023-03-01T03:27:47;3.33;;;1.10;;
31262;SDS011;17892;52.080;9.006;2023-03-01T03:30:18;2.72;;;1.00;;
31262;SDS011;17892;52.080;9.006;2023-03-01T03:32:46;3.17;;;1.48;;
31262;SDS011;17892;52.080;9.006;2023-03-01T03:35:18;3.35;;;1.58;;
31262;SDS011;17892;52.080;9.006;2023-03-01T03:37:58;3.35;;;0.90;;
31262;SDS011;17892;52.080;9.006;2023-03-01T03:40:33;3.35;;;1.02;;
31262;SDS011;17892;52.080;9.006;2023-03-01T03:43:05;2.72;;;1.10;;
31262;SDS011;17892;52.080;9.006;2023-03-01T03:45:40;3.30;;;1.20;;
31262;SDS011;17892;52.080;9.006;2023-03-01T03:48:07;2.88;;;1.13;;
31262;SDS011;17892;52.080;9.006;2023-03-01T03:50:35;2.65;;;1.00;;
31262;SDS011;17892;52.080;9.006;2023-03-01T03:53:03;4.55;;;2.10;;
31262;SDS011;17892;52.080;9.006;2023-03-01T03:55:33;3.08;;;1.25;;
31262;SDS011;17892;52.080;9.006;2023-03-01T03:57:59;2.72;;;1.33;;
31262;SDS011;17892;52.080;9.006;2023-03-01T04:00:31;5.10;;;1.98;;
31262;SDS011;17892;52.080;9.006;2023-03-01T04:03:01;3.75;;;1.48;;
31262;SDS011;17892;52.080;9.006;2023-03-01T04:05:27;3.30;;;1.42;;
31262;SDS011;17892;52.080;9.006;2023-03-01T04:07:53;5.15;;;1.80;;
31262;SDS011;17892;52.080;9.006;2023-03-01T04:10:33;3.25;;;1.20;;
31262;SDS011;17892;52.080;9.006;2023-03-01T04:13:05;3.22;;;1.33;;
31262;SDS011;17892;52.080;9.006;2023-03-01T04:15:31;2.38;;;1.13;;
31262;SDS011;17892;52.080;9.006;2023-03-01T04:17:59;3.45;;;1.30;;
31262;SDS011;17892;52.080;9.006;2023-03-01T04:20:26;1.70;;;0.82;;
31262;SDS011;17892;52.080;9.006;2023-03-01T04:23:02;3.45;;;0.98;;
31262;SDS011;17892;52.080;9.006;2023-03-01T04:25:47;2.83;;;1.38;;
31262;SDS011;17892;52.080;9.006;2023-03-01T04:30:52;2.75;;;1.20;;
31262;SDS011;17892;52.080;9.006;2023-03-01T04:33:19;2.08;;;0.93;;
31262;SDS011;17892;52.080;9.006;2023-03-01T04:35:45;2.38;;;1.02;;
31262;SDS011;17892;52.080;9.006;2023-03-01T04:38:14;2.28;;;1.02;;
31262;SDS011;17892;52.080;9.006;2023-03-01T04:40:44;2.17;;;0.98;;
31262;SDS011;17892;52.080;9.006;2023-03-01T04:43:10;2.47;;;1.05;;
31262;SDS011;17892;52.080;9.006;2023-03-01T04:45:40;2.85;;;1.25;;
31262;SDS011;17892;52.080;9.006;2023-03-01T04:48:06;2.50;;;0.95;;
31262;SDS011;17892;52.080;9.006;2023-03-01T04:50:32;2.92;;;1.13;;
31262;SDS011;17892;52.080;9.006;2023-03-01T04:52:58;2.17;;;0.80;;
31262;SDS011;17892;52.080;9.006;2023-03-01T04:55:24;2.88;;;0.88;;
31262;SDS011;17892;52.080;9.006;2023-03-01T04:57:51;1.83;;;0.68;;
31262;SDS011;17892;52.080;9.006;2023-03-01T05:00:18;1.95;;;0.85;;
31262;SDS011;17892;52.080;9.006;2023-03-01T05:02:46;2.78;;;1.10;;
31262;SDS011;17892;52.080;9.006;2023-03-01T05:05:14;3.97;;;1.50;;
31262;SDS011;17892;52.080;9.006;2023-03-01T05:07:40;2.25;;;1.00;;
31262;SDS011;17892;52.080;9.006;2023-03-01T05:10:06;3.17;;;1.75;;
31262;SDS011;17892;52.080;9.006;2023-03-01T05:12:32;2.72;;;0.90;;
31262;SDS011;17892;52.080;9.006;2023-03-01T05:14:58;2.85;;;1.30;;
31262;SDS011;17892;52.080;9.006;2023-03-01T05:17:23;2.03;;;0.90;;
31262;SDS011;17892;52.080;9.006;2023-03-01T05:19:49;2.70;;;1.00;;
31262;SDS011;17892;52.080;9.006;2023-03-01T05:22:15;1.95;;;0.82;;
31262;SDS011;17892;52.080;9.006;2023-03-01T05:24:41;2.33;;;1.05;;
31262;SDS011;17892;52.080;9.006;2023-03-01T05:27:07;4.43;;;1.67;;
31262;SDS011;17892;52.080;9.006;2023-03-01T05:29:33;2.38;;;1.17;;
31262;SDS011;17892;52.080;9.006;2023-03-01T05:32:00;2.03;;;1.00;;
31262;SDS011;17892;52.080;9.006;2023-03-01T05:34:31;2.58;;;1.10;;
31262;SDS011;17892;52.080;9.006;2023-03-01T05:37:00;1.77;;;0.70;;
31262;SDS011;17892;52.080;9.006;2023-03-01T05:39:27;1.98;;;0.80;;
31262;SDS011;17892;52.080;9.006;2023-03-01T05:41:55;2.20;;;1.17;;
31262;SDS011;17892;52.080;9.006;2023-03-01T05:44:23;1.92;;;0.60;;
31262;SDS011;17892;52.080;9.006;2023-03-01T05:46:50;2.25;;;1.00;;
31262;SDS011;17892;52.080;9.006;2023-03-01T05:49:16;2.65;;;0.80;;
31262;SDS011;17892;52.080;9.006;2023-03-01T05:51:43;2.67;;;1.20;;
31262;SDS011;17892;52.080;9.006;2023-03-01T05:54:14;1.38;;;0.65;;
31262;SDS011;17892;52.080;9.006;2023-03-01T05:56:40;2.30;;;0.85;;
31262;SDS011;17892;52.080;9.006;2023-03-01T05:59:07;3.72;;;1.00;;
31262;SDS011;17892;52.080;9.006;2023-03-01T06:01:33;2.78;;;1.13;;
31262;SDS011;17892;52.080;9.006;2023-03-01T06:04:00;2.00;;;0.93;;
31262;SDS011;17892;52.080;9.006;2023-03-01T06:06:26;2.47;;;1.00;;
31262;SDS011;17892;52.080;9.006;2023-03-01T06:08:53;2.95;;;1.25;;
31262;SDS011;17892;52.080;9.006;2023-03-01T06:11:19;1.88;;;0.80;;
31262;SDS011;17892;52.080;9.006;2023-03-01T06:13:45;2.22;;;0.90;;
31262;SDS011;17892;52.080;9.006;2023-03-01T06:16:12;2.33;;;1.10;;
31262;SDS011;17892;52.080;9.006;2023-03-01T06:18:38;2.25;;;0.85;;
31262;SDS011;17892;52.080;9.006;2023-03-01T06:21:05;2.20;;;0.80;;
31262;SDS011;17892;52.080;9.006;2023-03-01T06:23:32;3.05;;;1.00;;
31262;SDS011;17892;52.080;9.006;2023-03-01T06:25:59;2.83;;;1.23;;
31262;SDS011;17892;52.080;9.006;2023-03-01T06:28:25;2.85;;;1.02;;
31262;SDS011;17892;52.080;9.006;2023-03-01T06:30:50;2.75;;;1.05;;
31262;SDS011;17892;52.080;9.006;2023-03-01T06:33:16;2.53;;;1.20;;
31262;SDS011;17892;52.080;9.006;2023-03-01T06:35:45;3.10;;;1.50;;
31262;SDS011;17892;52.080;9.006;2023-03-01T06:38:11;2.83;;;1.27;;
31262;SDS011;17892;52.080;9.006;2023-03-01T06:40:39;2.70;;;1.00;;
31262;SDS011;17892;52.080;9.006;2023-03-01T06:43:06;2.67;;;1.08;;
31262;SDS011;17892;52.080;9.006;2023-03-01T06:45:32;2.33;;;0.95;;
31262;SDS011;17892;52.080;9.006;2023-03-01T06:48:04;4.20;;;1.60;;
31262;SDS011;17892;52.080;9.006;2023-03-01T06:50:32;2.90;;;0.88;;
31262;SDS011;17892;52.080;9.006;2023-03-01T06:52:59;3.10;;;1.30;;
31262;SDS011;17892;52.080;9.006;2023-03-01T06:55:25;3.15;;;1.27;;
31262;SDS011;17892;52.080;9.006;2023-03-01T06:58:09;3.33;;;1.30;;
31262;SDS011;17892;52.080;9.006;2023-03-01T07:00:35;3.08;;;1.30;;
31262;SDS011;17892;52.080;9.006;2023-03-01T07:03:01;2.30;;;1.00;;
31262;SDS011;17892;52.080;9.006;2023-03-01T07:05:28;2.95;;;1.60;;
31262;SDS011;17892;52.080;9.006;2023-03-01T07:07:55;3.25;;;1.80;;
31262;SDS011;17892;52.080;9.006;2023-03-01T07:10:21;4.68;;;1.95;;
31262;SDS011;17892;52.080;9.006;2023-03-01T07:12:47;2.95;;;1.45;;
31262;SDS011;17892;52.080;9.006;2023-03-01T07:15:12;3.70;;;1.42;;
31262;SDS011;17892;52.080;9.006;2023-03-01T07:17:40;3.83;;;1.70;;
31262;SDS011;17892;52.080;9.006;2023-03-01T07:20:05;3.03;;;1.35;;
31262;SDS011;17892;52.080;9.006;2023-03-01T07:22:31;5.13;;;2.17;;
31262;SDS011;17892;52.080;9.006;2023-03-01T07:24:57;5.15;;;2.22;;
31262;SDS011;17892;52.080;9.006;2023-03-01T07:27:23;4.20;;;2.03;;
31262;SDS011;17892;52.080;9.006;2023-03-01T07:29:48;4.25;;;2.20;;
31262;SDS011;17892;52.080;9.006;2023-03-01T07:32:14;6.07;;;2.72;;
31262;SDS011;17892;52.080;9.006;2023-03-01T07:34:41;7.43;;;2.80;;
31262;SDS011;17892;52.080;9.006;2023-03-01T07:37:06;5.25;;;2.42;;
31262;SDS011;17892;52.080;9.006;2023-03-01T07:39:32;4.95;;;2.60;;
31262;SDS011;17892;52.080;9.006;2023-03-01T07:41:58;5.60;;;2.72;;
31262;SDS011;17892;52.080;9.006;2023-03-01T07:44:24;5.18;;;2.40;;
31262;SDS011;17892;52.080;9.006;2023-03-01T07:46:49;5.72;;;2.42;;
31262;SDS011;17892;52.080;9.006;2023-03-01T07:49:17;5.25;;;2.42;;
31262;SDS011;17892;52.080;9.006;2023-03-01T07:51:43;9.35;;;2.92;;
31262;SDS011;17892;52.080;9.006;2023-03-01T07:54:08;5.40;;;2.88;;
31262;SDS011;17892;52.080;9.006;2023-03-01T07:56:34;4.18;;;2.50;;
31262;SDS011;17892;52.080;9.006;2023-03-01T07:59:00;4.18;;;2.75;;
31262;SDS011;17892;52.080;9.006;2023-03-01T08:01:26;4.35;;;2.50;;
31262;SDS011;17892;52.080;9.006;2023-03-01T08:03:51;3.75;;;2.22;;
31262;SDS011;17892;52.080;9.006;2023-03-01T08:06:18;3.92;;;2.15;;
31262;SDS011;17892;52.080;9.006;2023-03-01T08:08:44;4.68;;;2.63;;
31262;SDS011;17892;52.080;9.006;2023-03-01T08:11:11;4.30;;;2.13;;
31262;SDS011;17892;52.080;9.006;2023-03-01T08:13:39;3.80;;;2.17;;
31262;SDS011;17892;52.080;9.006;2023-03-01T08:16:06;4.15;;;2.28;;
31262;SDS011;17892;52.080;9.006;2023-03-01T08:18:37;4.72;;;2.72;;
31262;SDS011;17892;52.080;9.006;2023-03-01T08:21:03;4.78;;;2.83;;
31262;SDS011;17892;52.080;9.006;2023-03-01T08:23:35;5.35;;;2.72;;
31262;SDS011;17892;52.080;9.006;2023-03-01T08:26:20;5.15;;;2.45;;
31262;SDS011;17892;52.080;9.006;2023-03-01T08:28:47;6.15;;;3.35;;
31262;SDS011;17892;52.080;9.006;2023-03-01T08:31:15;4.25;;;2.58;;
31262;SDS011;17892;52.080;9.006;2023-03-01T08:33:47;5.85;;;3.13;;
31262;SDS011;17892;52.080;9.006;2023-03-01T08:36:20;6.90;;;3.90;;
31262;SDS011;17892;52.080;9.006;2023-03-01T08:38:54;5.45;;;3.35;;
31262;SDS011;17892;52.080;9.006;2023-03-01T08:41:20;5.07;;;3.58;;
31262;SDS011;17892;52.080;9.006;2023-03-01T08:43:46;5.85;;;3.15;;
31262;SDS011;17892;52.080;9.006;2023-03-01T08:46:11;6.28;;;3.30;;
31262;SDS011;17892;52.080;9.006;2023-03-01T08:48:38;6.47;;;3.55;;
31262;SDS011;17892;52.080;9.006;2023-03-01T08:51:15;4.82;;;2.83;;
31262;SDS011;17892;52.080;9.006;2023-03-01T08:53:44;5.13;;;3.20;;
31262;SDS011;17892;52.080;9.006;2023-03-01T08:56:10;5.55;;;3.25;;
31262;SDS011;17892;52.080;9.006;2023-03-01T08:58:37;6.65;;;3.78;;
31262;SDS011;17892;52.080;9.006;2023-03-01T09:01:07;6.70;;;3.55;;
31262;SDS011;17892;52.080;9.006;2023-03-01T09:03:35;6.47;;;3.70;;
31262;SDS011;17892;52.080;9.006;2023-03-01T09:06:01;5.47;;;3.15;;
31262;SDS011;17892;52.080;9.006;2023-03-01T09:08:29;5.15;;;2.80;;
31262;SDS011;17892;52.080;9.006;2023-03-01T09:10:55;5.53;;;3.30;;
31262;SDS011;17892;52.080;9.006;2023-03-01T09:13:21;7.05;;;3.13;;
31262;SDS011;17892;52.080;9.006;2023-03-01T09:15:52;6.35;;;3.67;;
31262;SDS011;17892;52.080;9.006;2023-03-01T09:18:17;7.05;;;3.60;;
31262;SDS011;17892;52.080;9.006;2023-03-01T09:20:43;5.20;;;3.22;;
31262;SDS011;17892;52.080;9.006;2023-03-01T09:23:09;7.05;;;3.85;;
31262;SDS011;17892;52.080;9.006;2023-03-01T09:25:35;5.32;;;3.13;;
31262;SDS011;17892;52.080;9.006;2023-03-01T09:28:01;5.53;;;3.65;;
31262;SDS011;17892;52.080;9.006;2023-03-01T09:30:27;5.70;;;3.70;;
31262;SDS011;17892;52.080;9.006;2023-03-01T09:32:52;5.22;;;3.10;;
31262;SDS011;17892;52.080;9.006;2023-03-01T09:35:18;5.53;;;3.22;;
31262;SDS011;17892;52.080;9.006;2023-03-01T09:37:45;6.40;;;3.75;;
31262;SDS011;17892;52.080;9.006;2023-03-01T09:40:12;4.82;;;3.10;;
31262;SDS011;17892;52.080;9.006;2023-03-01T09:42:46;7.20;;;3.72;;
31262;SDS011;17892;52.080;9.006;2023-03-01T09:45:26;5.35;;;3.15;;
31262;SDS011;17892;52.080;9.006;2023-03-01T09:47:58;8.93;;;3.58;;
31262;SDS011;17892;52.080;9.006;2023-03-01T09:50:26;6.18;;;3.55;;
31262;SDS011;17892;52.080;9.006;2023-03-01T09:53:00;7.72;;;3.90;;
31262;SDS011;17892;52.080;9.006;2023-03-01T09:55:38;6.18;;;3.40;;
31262;SDS011;17892;52.080;9.006;2023-03-01T10:01:35;5.10;;;2.72;;
31262;SDS011;17892;52.080;9.006;2023-03-01T10:07:27;5.47;;;2.80;;
31262;SDS011;17892;52.080;9.006;2023-03-01T10:09:57;5.10;;;2.55;;
31262;SDS011;17892;52.080;9.006;2023-03-01T10:12:26;5.55;;;2.83;;
31262;SDS011;17892;52.080;9.006;2023-03-01T10:17:47;5.22;;;2.95;;
31262;SDS011;17892;52.080;9.006;2023-03-01T10:23:40;4.43;;;2.40;;
31262;SDS011;17892;52.080;9.006;2023-03-01T10:26:11;3.78;;;2.10;;
31262;SDS011;17892;52.080;9.006;2023-03-01T10:28:59;4.70;;;2.95;;
31262;SDS011;17892;52.080;9.006;2023-03-01T10:34:29;5.25;;;2.83;;
31262;SDS011;17892;52.080;9.006;2023-03-01T10:36:57;5.53;;;3.35;;
31262;SDS011;17892;52.080;9.006;2023-03-01T10:39:37;4.65;;;2.53;;
31262;SDS011;17892;52.080;9.006;2023-03-01T10:42:45;5.88;;;2.85;;
31262;SDS011;17892;52.080;9.006;2023-03-01T10:48:12;6.32;;;3.08;;
31262;SDS011;17892;52.080;9.006;2023-03-01T10:50:49;5.90;;;3.50;;
31262;SDS011;17892;52.080;9.006;2023-03-01T10:53:37;6.20;;;3.40;;
31262;SDS011;17892;52.080;9.006;2023-03-01T10:56:08;5.90;;;3.50;;
31262;SDS011;17892;52.080;9.006;2023-03-01T10:58:37;5.22;;;3.22;;
31262;SDS011;17892;52.080;9.006;2023-03-01T11:01:06;5.55;;;3.10;;
31262;SDS011;17892;52.080;9.006;2023-03-01T11:06:33;6.38;;;3.55;;
31262;SDS011;17892;52.080;9.006;2023-03-01T11:09:17;7.47;;;3.60;;
31262;SDS011;17892;52.080;9.006;2023-03-01T11:11:46;6.30;;;3.20;;
31262;SDS011;17892;52.080;9.006;2023-03-01T11:14:20;6.25;;;3.00;;
31262;SDS011;17892;52.080;9.006;2023-03-01T11:16:58;5.97;;;3.40;;
31262;SDS011;17892;52.080;9.006;2023-03-01T11:19:30;5.68;;;3.35;;
31262;SDS011;17892;52.080;9.006;2023-03-01T11:24:50;6.82;;;3.83;;
31262;SDS011;17892;52.080;9.006;2023-03-01T11:29:45;5.07;;;2.80;;
31262;SDS011;17892;52.080;9.006;2023-03-01T11:35:56;5.85;;;3.00;;
31262;SDS011;17892;52.080;9.006;2023-03-01T11:41:16;6.32;;;3.20;;
31262;SDS011;17892;52.080;9.006;2023-03-01T11:43:51;5.07;;;2.28;;
31262;SDS011;17892;52.080;9.006;2023-03-01T11:58:10;5.63;;;2.90;;
31262;SDS011;17892;52.080;9.006;2023-03-01T12:06:34;5.65;;;3.10;;
31262;SDS011;17892;52.080;9.006;2023-03-01T12:23:56;7.13;;;2.97;;
31262;SDS011;17892;52.080;9.006;2023-03-01T12:35:12;4.50;;;2.42;;
31262;SDS011;17892;52.080;9.006;2023-03-01T12:37:57;5.57;;;2.72;;
31262;SDS011;17892;52.080;9.006;2023-03-01T12:47:17;5.40;;;2.80;;
31262;SDS011;17892;52.080;9.006;2023-03-01T12:49:54;4.00;;;1.80;;
31262;SDS011;17892;52.080;9.006;2023-03-01T12:52:35;3.95;;;2.47;;
31262;SDS011;17892;52.080;9.006;2023-03-01T12:55:03;3.67;;;2.10;;
31262;SDS011;17892;52.080;9.006;2023-03-01T12:57:47;4.35;;;2.35;;
31262;SDS011;17892;52.080;9.006;2023-03-01T13:00:30;4.65;;;2.47;;
31262;SDS011;17892;52.080;9.006;2023-03-01T13:11:35;4.32;;;2.40;;
31262;SDS011;17892;52.080;9.006;2023-03-01T13:16:45;4.65;;;2.53;;
31262;SDS011;17892;52.080;9.006;2023-03-01T13:19:27;4.03;;;2.53;;
31262;SDS011;17892;52.080;9.006;2023-03-01T13:21:55;4.88;;;2.50;;
31262;SDS011;17892;52.080;9.006;2023-03-01T13:24:27;4.40;;;2.10;;
31262;SDS011;17892;52.080;9.006;2023-03-01T13:34:58;5.20;;;2.55;;
31262;SDS011;17892;52.080;9.006;2023-03-01T13:37:43;3.63;;;2.17;;
31262;SDS011;17892;52.080;9.006;2023-03-01T13:42:45;2.95;;;1.90;;
31262;SDS011;17892;52.080;9.006;2023-03-01T13:47:56;3.90;;;2.00;;
31262;SDS011;17892;52.080;9.006;2023-03-01T13:50:28;4.57;;;2.33;;
31262;SDS011;17892;52.080;9.006;2023-03-01T13:53:03;4.88;;;2.22;;
31262;SDS011;17892;52.080;9.006;2023-03-01T13:55:36;4.22;;;2.28;;
31262;SDS011;17892;52.080;9.006;2023-03-01T14:01:22;4.57;;;2.17;;
31262;SDS011;17892;52.080;9.006;2023-03-01T14:03:51;5.95;;;2.88;;
31262;SDS011;17892;52.080;9.006;2023-03-01T14:06:23;5.07;;;2.42;;
31262;SDS011;17892;52.080;9.006;2023-03-01T14:09:16;4.88;;;2.55;;
31262;SDS011;17892;52.080;9.006;2023-03-01T14:12:00;4.80;;;2.17;;
31262;SDS011;17892;52.080;9.006;2023-03-01T14:14:44;4.53;;;2.30;;
31262;SDS011;17892;52.080;9.006;2023-03-01T14:19:57;5.28;;;2.10;;
31262;SDS011;17892;52.080;9.006;2023-03-01T14:22:27;4.07;;;2.22;;
31262;SDS011;17892;52.080;9.006;2023-03-01T14:25:03;5.47;;;2.65;;
31262;SDS011;17892;52.080;9.006;2023-03-01T14:27:42;4.78;;;2.63;;
31262;SDS011;17892;52.080;9.006;2023-03-01T14:30:18;3.97;;;1.88;;
31262;SDS011;17892;52.080;9.006;2023-03-01T14:32:52;4.68;;;2.13;;
31262;SDS011;17892;52.080;9.006;2023-03-01T14:35:22;4.63;;;2.78;;
31262;SDS011;17892;52.080;9.006;2023-03-01T14:37:52;5.68;;;2.40;;
31262;SDS011;17892;52.080;9.006;2023-03-01T14:40:32;4.57;;;2.35;;
31262;SDS011;17892;52.080;9.006;2023-03-01T14:43:01;7.57;;;2.58;;
31262;SDS011;17892;52.080;9.006;2023-03-01T14:45:35;3.90;;;2.05;;
31262;SDS011;17892;52.080;9.006;2023-03-01T14:48:01;4.78;;;2.13;;
31262;SDS011;17892;52.080;9.006;2023-03-01T14:50:30;3.78;;;2.00;;
31262;SDS011;17892;52.080;9.006;2023-03-01T14:53:00;4.68;;;2.40;;
31262;SDS011;17892;52.080;9.006;2023-03-01T14:55:33;5.00;;;2.33;;
31262;SDS011;17892;52.080;9.006;2023-03-01T14:58:03;5.07;;;2.28;;
31262;SDS011;17892;52.080;9.006;2023-03-01T15:00:34;4.00;;;2.10;;
31262;SDS011;17892;52.080;9.006;2023-03-01T15:03:07;4.35;;;2.15;;
31262;SDS011;17892;52.080;9.006;2023-03-01T15:05:42;5.32;;;2.40;;
31262;SDS011;17892;52.080;9.006;2023-03-01T15:08:14;4.13;;;1.90;;
31262;SDS011;17892;52.080;9.006;2023-03-01T15:10:56;5.15;;;2.58;;
31262;SDS011;17892;52.080;9.006;2023-03-01T15:13:42;4.18;;;2.08;;
31262;SDS011;17892;52.080;9.006;2023-03-01T15:16:12;3.75;;;1.92;;
31262;SDS011;17892;52.080;9.006;2023-03-01T15:18:49;5.40;;;2.97;;
31262;SDS011;17892;52.080;9.006;2023-03-01T15:21:18;5.43;;;2.38;;
31262;SDS011;17892;52.080;9.006;2023-03-01T15:24:30;4.20;;;2.03;;
31262;SDS011;17892;52.080;9.006;2023-03-01T15:26:44;4.60;;;2.50;;
31262;SDS011;17892;52.080;9.006;2023-03-01T15:29:28;7.32;;;2.40;;
31262;SDS011;17892;52.080;9.006;2023-03-01T15:32:02;4.35;;;2.13;;
31262;SDS011;17892;52.080;9.006;2023-03-01T15:34:50;4.93;;;2.42;;
31262;SDS011;17892;52.080;9.006;2023-03-01T15:40:25;4.95;;;2.45;;
31262;SDS011;17892;52.080;9.006;2023-03-01T15:43:00;3.65;;;1.90;;
31262;SDS011;17892;52.080;9.006;2023-03-01T15:45:30;4.22;;;2.10;;
31262;SDS011;17892;52.080;9.006;2023-03-01T15:48:02;4.20;;;2.00;;
31262;SDS011;17892;52.080;9.006;2023-03-01T15:50:38;3.80;;;1.75;;
31262;SDS011;17892;52.080;9.006;2023-03-01T15:53:06;3.80;;;2.05;;
31262;SDS011;17892;52.080;9.006;2023-03-01T15:55:37;3.65;;;1.80;;
31262;SDS011;17892;52.080;9.006;2023-03-01T15:58:21;4.78;;;2.55;;
31262;SDS011;17892;52.080;9.006;2023-03-01T16:00:51;4.78;;;2.13;;
31262;SDS011;17892;52.080;9.006;2023-03-01T16:03:22;5.05;;;2.42;;
31262;SDS011;17892;52.080;9.006;2023-03-01T16:05:48;3.47;;;1.75;;
31262;SDS011;17892;52.080;9.006;2023-03-01T16:08:15;4.05;;;2.20;;
31262;SDS011;17892;52.080;9.006;2023-03-01T16:10:42;4.03;;;2.35;;
31262;SDS011;17892;52.080;9.006;2023-03-01T16:13:08;5.22;;;2.40;;
31262;SDS011;17892;52.080;9.006;2023-03-01T16:15:37;4.25;;;2.20;;
31262;SDS011;17892;52.080;9.006;2023-03-01T16:18:04;5.05;;;2.47;;
31262;SDS011;17892;52.080;9.006;2023-03-01T16:20:31;5.43;;;2.30;;
31262;SDS011;17892;52.080;9.006;2023-03-01T16:22:58;4.50;;;2.20;;
31262;SDS011;17892;52.080;9.006;2023-03-01T16:25:33;5.20;;;2.67;;
31262;SDS011;17892;52.080;9.006;2023-03-01T16:28:00;4.72;;;2.42;;
31262;SDS011;17892;52.080;9.006;2023-03-01T16:30:29;4.07;;;1.90;;
31262;SDS011;17892;52.080;9.006;2023-03-01T16:32:56;4.18;;;1.90;;
31262;SDS011;17892;52.080;9.006;2023-03-01T16:35:21;5.28;;;2.30;;
31262;SDS011;17892;52.080;9.006;2023-03-01T16:37:48;5.78;;;2.33;;
31262;SDS011;17892;52.080;9.006;2023-03-01T16:40:16;4.55;;;2.22;;
31262;SDS011;17892;52.080;9.006;2023-03-01T16:42:53;4.45;;;2.10;;
31262;SDS011;17892;52.080;9.006;2023-03-01T16:45:24;4.38;;;1.90;;
31262;SDS011;17892;52.080;9.006;2023-03-01T16:47:51;5.15;;;2.03;;
31262;SDS011;17892;52.080;9.006;2023-03-01T16:50:17;4.32;;;1.98;;
31262;SDS011;17892;52.080;9.006;2023-03-01T16:52:43;3.97;;;1.77;;
31262;SDS011;17892;52.080;9.006;2023-03-01T16:55:09;4.28;;;1.90;;
31262;SDS011;17892;52.080;9.006;2023-03-01T16:57:38;3.88;;;1.88;;
31262;SDS011;17892;52.080;9.006;2023-03-01T17:00:06;4.57;;;2.00;;
31262;SDS011;17892;52.080;9.006;2023-03-01T17:02:37;4.38;;;1.83;;
31262;SDS011;17892;52.080;9.006;2023-03-01T17:05:04;3.95;;;2.00;;
31262;SDS011;17892;52.080;9.006;2023-03-01T17:07:31;5.07;;;1.70;;
31262;SDS011;17892;52.080;9.006;2023-03-01T17:10:02;6.38;;;1.95;;
31262;SDS011;17892;52.080;9.006;2023-03-01T17:12:31;3.60;;;1.67;;